Tiempo atmosférico en la estación meteorológica de El Ejido , Almería (98 m.)



Fecha
DESCASC
Temp. máxima en grados centígrados (hora)
DESCASC
Temp. mínima en grados centígrados (hora)
DESCASC
Temp. media en grados centígrados
DESCASC
Racha de viento máxima en m/sg (hora)
DESCASC
Velocidad máxima media en intervalos de 10 minutos(hora)
DESCASC
Precipitaciones diarias en mm
DESCASC
Precipitaciones de 00:00 a 06:00 en mm
DESCASC
Precipitaciones de 06:00 a 12:00 en mm
DESCASC
Precipitaciones de 12:00 a 18:00 en mm
DESCASC
Precipitaciones de 18:00 a 24:00 en mm
DESCASC
16-04-2019 24.5 (16:00) 13.1 (07:50) 18.8 -- (--) -- (--) 0 0 0 0 0
15-04-2019 27.5 (13:40) 13.6 (07:50) 20.6 -- (--) -- (--) 0 0 0 0 0
14-04-2019 25.9 (15:20) 12.3 (00:00) 19.1 -- (--) -- (--) 0 0 0 0 0
13-04-2019 24.8 (12:40) 11.4 (00:00) 18.1 -- (--) -- (--) 0 0 0 0 0
12-04-2019 23.5 (14:50) 12.9 (00:00) 18.2 -- (--) -- (--) 0 0 0 0 0
11-04-2019 22.5 (15:50) 12.5 (00:00) 17.5 -- (--) -- (--) 0 0 0 0 0
10-04-2019 22 (15:10) 12.2 (00:00) 17.1 -- (--) -- (--) 0 0 0 0 0
09-04-2019 21 (12:10) 11.2 (00:00) 16.1 -- (--) -- (--) 0 0 0 0 0
08-04-2019 20.1 (15:50) 13.2 (00:00) 16.7 -- (--) -- (--) 0 0 0 0 0
07-04-2019 21.8 (14:00) 11.9 (01:20) 16.8 -- (--) -- (--) 0 0 0 0 0
06-04-2019 17.4 (14:30) 9.4 (05:10) 13.4 -- (--) -- (--) 0 0 0 0 0
05-04-2019 15.2 (09:50) 11.1 (22:10) 13.2 -- (--) -- (--) 7.2 0 1 4.4 1.8

Gráficas

Temp. máximas Temp. mínimas Temp. medias Precipitaciones Rachas de viento máximas Velocidades máximas media en intervalos de 10 minutos

Datos horarios

Fecha y hora oficial Temperatura (ºC) Velocidad del viento (km/h) Dirección del viento Racha (km/h) Dirección de racha Precipitación (mm) Presión (hPa) Tendencia (hPa) Humedad (%)
2019-04-17 23:00:00 -- -- -- -- -- -- -- -- --
2019-04-17 22:00:00 -- -- -- -- -- -- -- -- --
2019-04-17 21:00:00 -- -- -- -- -- -- -- -- --
2019-04-17 20:00:00 -- -- -- -- -- -- -- -- --
2019-04-17 19:00:00 -- -- -- -- -- -- -- -- --
2019-04-17 18:00:00 -- -- -- -- -- -- -- -- --
2019-04-17 17:00:00 -- -- -- -- -- -- -- -- --
2019-04-17 16:00:00 -- -- -- -- -- -- -- -- --
2019-04-17 15:00:00 23.6 -- -- -- -- 0 -- -- 43
2019-04-17 14:00:00 23.1 -- -- -- -- 0 -- -- 44
2019-04-17 13:00:00 23.4 -- -- -- -- 0 -- -- 45
2019-04-17 12:00:00 22.6 -- -- -- -- 0 -- -- 45
2019-04-17 11:00:00 21.1 -- -- -- -- 0 -- -- 47
2019-04-17 10:00:00 21.4 -- -- -- -- 0 -- -- 42
2019-04-17 09:00:00 17.8 -- -- -- -- 0 -- -- 53
2019-04-17 08:00:00 15 -- -- -- -- 0 -- -- 62
2019-04-17 07:00:00 15.8 -- -- -- -- 0 -- -- 58
2019-04-17 06:00:00 16.1 -- -- -- -- 0 -- -- 54
2019-04-17 05:00:00 15.2 -- -- -- -- 0 -- -- 63
2019-04-17 04:00:00 15.3 -- -- -- -- 0 -- -- 64
2019-04-17 03:00:00 15.3 -- -- -- -- 0 -- -- 70
2019-04-17 02:00:00 15.7 -- -- -- -- 0 -- -- 70
2019-04-17 01:00:00 15.8 -- -- -- -- 0 -- -- 72
2019-04-17 00:00:00 16 -- -- -- -- 0 -- -- 77
2019-04-16 23:00:00 16.6 -- -- -- -- 0 -- -- 79
2019-04-16 22:00:00 17.7 -- -- -- -- 0 -- -- 67
2019-04-16 21:00:00 18.7 -- -- -- -- 0 -- -- 61
2019-04-16 20:00:00 20.5 -- -- -- -- 0 -- -- 53
2019-04-16 19:00:00 21.5 -- -- -- -- 0 -- -- 51
2019-04-16 18:00:00 22.4 -- -- -- -- 0 -- -- 48
2019-04-16 17:00:00 24.1 -- -- -- -- 0 -- -- 42
2019-04-16 16:00:00 24.5 -- -- -- -- 0 -- -- 44
2019-04-16 15:00:00 23.3 -- -- -- -- 0 -- -- 50
2019-04-16 14:00:00 22 -- -- -- -- 0 -- -- 57
2019-04-16 13:00:00 21.1 -- -- -- -- 0 -- -- 61
2019-04-16 12:00:00 19.7 -- -- -- -- 0 -- -- 69
2019-04-16 11:00:00 19.5 -- -- -- -- 0 -- -- 68
2019-04-16 10:00:00 19.5 -- -- -- -- 0 -- -- 65
2019-04-16 09:00:00 15.7 -- -- -- -- 0 -- -- 85
2019-04-16 08:00:00 13.3 -- -- -- -- 0 -- -- 91
2019-04-16 07:00:00 13.3 -- -- -- -- 0 -- -- 89
2019-04-16 06:00:00 13.7 -- -- -- -- 0 -- -- 88
2019-04-16 05:00:00 13.8 -- -- -- -- 0 -- -- 86
2019-04-16 04:00:00 14.7 -- -- -- -- 0 -- -- 84
2019-04-16 03:00:00 15.4 -- -- -- -- 0 -- -- 81
2019-04-16 02:00:00 15.7 -- -- -- -- 0 -- -- 77
2019-04-16 01:00:00 16.1 -- -- -- -- 0 -- -- 74
2019-04-16 00:00:00 16.1 -- -- -- -- 0 -- -- 80
2019-04-15 23:00:00 17.1 -- -- -- -- 0 -- -- 73
2019-04-15 22:00:00 17.9 -- -- -- -- 0 -- -- 66
2019-04-15 21:00:00 18.8 -- -- -- -- 0 -- -- 61
2019-04-15 20:00:00 21.6 -- -- -- -- 0 -- -- 41
2019-04-15 19:00:00 21.9 -- -- -- -- 0 -- -- 53
2019-04-15 18:00:00 22.9 -- -- -- -- 0 -- -- 43
2019-04-15 17:00:00 24.6 -- -- -- -- 0 -- -- 37
2019-04-15 16:00:00 25.5 -- -- -- -- 0 -- -- 35
2019-04-15 15:00:00 -- -- -- -- -- -- -- -- --
2019-04-15 14:00:00 -- -- -- -- -- -- -- -- --
2019-04-15 13:00:00 -- -- -- -- -- -- -- -- --
2019-04-15 12:00:00 -- -- -- -- -- -- -- -- --
2019-04-15 11:00:00 -- -- -- -- -- -- -- -- --
2019-04-15 10:00:00 -- -- -- -- -- -- -- -- --
2019-04-15 09:00:00 -- -- -- -- -- -- -- -- --
2019-04-15 08:00:00 -- -- -- -- -- -- -- -- --
2019-04-15 07:00:00 -- -- -- -- -- -- -- -- --
2019-04-15 06:00:00 -- -- -- -- -- -- -- -- --
2019-04-15 05:00:00 -- -- -- -- -- -- -- -- --
2019-04-15 04:00:00 -- -- -- -- -- -- -- -- --
2019-04-15 03:00:00 -- -- -- -- -- -- -- -- --
2019-04-15 02:00:00 15.5 -- -- -- -- 0 -- -- 72
2019-04-15 01:00:00 16.7 -- -- -- -- 0 -- -- 72
2019-04-15 00:00:00 17 -- -- -- -- 0 -- -- 62
2019-04-14 23:00:00 17.5 -- -- -- -- 0 -- -- 62
2019-04-14 22:00:00 17.7 -- -- -- -- 0 -- -- 60
2019-04-14 21:00:00 18.8 -- -- -- -- 0 -- -- 56
2019-04-14 20:00:00 20 -- -- -- -- 0 -- -- 52
2019-04-14 19:00:00 22.6 -- -- -- -- 0 -- -- 37
2019-04-14 18:00:00 23.6 -- -- -- -- 0 -- -- 36
2019-04-14 17:00:00 24.7 -- -- -- -- 0 -- -- 35
2019-04-14 16:00:00 25.1 -- -- -- -- 0 -- -- 36
2019-04-14 15:00:00 24.9 -- -- -- -- 0 -- -- 38
2019-04-14 14:00:00 24.7 -- -- -- -- 0 -- -- 52
2019-04-14 13:00:00 23.2 -- -- -- -- 0 -- -- 58
2019-04-14 12:00:00 23 -- -- -- -- 0 -- -- 58
2019-04-14 11:00:00 21.8 -- -- -- -- 0 -- -- 48
2019-04-14 10:00:00 20 -- -- -- -- 0 -- -- 63
2019-04-14 09:00:00 17.7 -- -- -- -- 0 -- -- 74
2019-04-14 08:00:00 12.8 -- -- -- -- 0 -- -- 88
2019-04-14 07:00:00 12.3 -- -- -- -- 0 -- -- 83
2019-04-14 06:00:00 12.9 -- -- -- -- 0 -- -- 84
2019-04-14 05:00:00 13 -- -- -- -- 0 -- -- 81
2019-04-14 04:00:00 13.2 -- -- -- -- 0 -- -- 75
2019-04-14 03:00:00 13.6 -- -- -- -- 0 -- -- 73
2019-04-14 02:00:00 13.9 -- -- -- -- 0 -- -- 73
2019-04-14 01:00:00 14.7 -- -- -- -- 0 -- -- 71
2019-04-14 00:00:00 14.8 -- -- -- -- 0 -- -- 72
2019-04-13 23:00:00 15.8 -- -- -- -- 0 -- -- 67
2019-04-13 22:00:00 16.4 -- -- -- -- 0 -- -- 68
2019-04-13 21:00:00 17.1 -- -- -- -- 0 -- -- 68
2019-04-13 20:00:00 19.7 -- -- -- -- 0 -- -- 51
2019-04-13 19:00:00 21.2 -- -- -- -- 0 -- -- 40
2019-04-13 18:00:00 22.5 -- -- -- -- 0 -- -- 31
2019-04-13 17:00:00 23.2 -- -- -- -- 0 -- -- 31
2019-04-13 16:00:00 23.9 -- -- -- -- 0 -- -- 32
2019-04-13 15:00:00 23.8 -- -- -- -- 0 -- -- 38
2019-04-13 14:00:00 24.4 -- -- -- -- 0 -- -- 35
2019-04-13 13:00:00 24.8 -- -- -- -- 0 -- -- 28
2019-04-13 12:00:00 24 -- -- -- -- 0 -- -- 31
2019-04-13 11:00:00 21.8 -- -- -- -- 0 -- -- 53
2019-04-13 10:00:00 18.7 -- -- -- -- 0 -- -- 60
2019-04-13 09:00:00 18 -- -- -- -- 0 -- -- 52
2019-04-13 08:00:00 11.7 -- -- -- -- 0 -- -- 66
2019-04-13 07:00:00 11.5 -- -- -- -- 0 -- -- 68
2019-04-13 06:00:00 12.2 -- -- -- -- 0 -- -- 67
2019-04-13 05:00:00 12.4 -- -- -- -- 0 -- -- 64
2019-04-13 04:00:00 12.3 -- -- -- -- 0 -- -- 62
2019-04-13 03:00:00 12.7 -- -- -- -- 0 -- -- 61
2019-04-13 02:00:00 13.6 -- -- -- -- 0 -- -- 60
2019-04-13 01:00:00 13.6 -- -- -- -- 0 -- -- 67
2019-04-13 00:00:00 14.3 -- -- -- -- 0 -- -- 66
2019-04-12 23:00:00 15.3 -- -- -- -- 0 -- -- 60
2019-04-12 22:00:00 16.1 -- -- -- -- 0 -- -- 61
2019-04-12 21:00:00 17.2 -- -- -- -- 0 -- -- 53
2019-04-12 20:00:00 19.4 -- -- -- -- 0 -- -- 38
2019-04-12 19:00:00 20.7 -- -- -- -- 0 -- -- 31
2019-04-12 18:00:00 21.9 -- -- -- -- 0 -- -- 29
2019-04-12 17:00:00 22.7 -- -- -- -- 0 -- -- 26
2019-04-12 16:00:00 23.3 -- -- -- -- 0 -- -- 26
2019-04-12 15:00:00 22.9 -- -- -- -- 0 -- -- 28
2019-04-12 14:00:00 22.8 -- -- -- -- 0 -- -- 32
2019-04-12 13:00:00 22.7 -- -- -- -- 0 -- -- 33
2019-04-12 12:00:00 21 -- -- -- -- 0 -- -- 38
2019-04-12 11:00:00 20.5 -- -- -- -- 0 -- -- 39
2019-04-12 10:00:00 20.1 -- -- -- -- 0 -- -- 49
2019-04-12 09:00:00 17.3 -- -- -- -- 0 -- -- 56
2019-04-12 08:00:00 13.1 -- -- -- -- 0 -- -- 64
2019-04-12 07:00:00 13.2 -- -- -- -- 0 -- -- 69
2019-04-12 06:00:00 13.8 -- -- -- -- 0 -- -- 70
2019-04-12 05:00:00 13.7 -- -- -- -- 0 -- -- 79
2019-04-12 04:00:00 14 -- -- -- -- 0 -- -- 82
2019-04-12 03:00:00 14.1 -- -- -- -- 0 -- -- 85
2019-04-12 02:00:00 13.8 -- -- -- -- 0 -- -- 86
2019-04-12 01:00:00 14 -- -- -- -- 0 -- -- 85
2019-04-12 00:00:00 14.7 -- -- -- -- 0 -- -- 81
2019-04-11 23:00:00 15.6 -- -- -- -- 0 -- -- 76
2019-04-11 22:00:00 16.2 -- -- -- -- 0 -- -- 73
2019-04-11 21:00:00 16.7 -- -- -- -- 0 -- -- 71
2019-04-11 20:00:00 17.2 -- -- -- -- 0 -- -- 67
2019-04-11 19:00:00 18.7 -- -- -- -- 0 -- -- 60
2019-04-11 18:00:00 19.9 -- -- -- -- 0 -- -- 53
2019-04-11 17:00:00 20.8 -- -- -- -- 0 -- -- 50
2019-04-11 16:00:00 22.4 -- -- -- -- 0 -- -- 39
2019-04-11 15:00:00 21.9 -- -- -- -- 0 -- -- 43
2019-04-11 14:00:00 21.4 -- -- -- -- 0 -- -- 46
2019-04-11 13:00:00 19.7 -- -- -- -- 0 -- -- 54
2019-04-11 12:00:00 19.7 -- -- -- -- 0 -- -- 40
2019-04-11 11:00:00 20.2 -- -- -- -- 0 -- -- 44
2019-04-11 10:00:00 19.2 -- -- -- -- 0 -- -- 46
2019-04-11 09:00:00 17.9 -- -- -- -- 0 -- -- 46
2019-04-11 08:00:00 13.1 -- -- -- -- 0 -- -- 56
2019-04-11 07:00:00 12.7 -- -- -- -- 0 -- -- 62
2019-04-11 06:00:00 12.5 -- -- -- -- 0 -- -- 63
2019-04-11 05:00:00 13.3 -- -- -- -- 0 -- -- 59
2019-04-11 04:00:00 13.1 -- -- -- -- 0 -- -- 60
2019-04-11 03:00:00 14.2 -- -- -- -- 0 -- -- 54
2019-04-11 02:00:00 14.4 -- -- -- -- 0 -- -- 52
2019-04-11 01:00:00 15.2 -- -- -- -- 0 -- -- 46
2019-04-11 00:00:00 16 -- -- -- -- 0 -- -- 43
2019-04-10 23:00:00 16.4 -- -- -- -- 0 -- -- 47
2019-04-10 22:00:00 17.1 -- -- -- -- 0 -- -- 47
2019-04-10 21:00:00 18.5 -- -- -- -- 0 -- -- 42
2019-04-10 20:00:00 20 -- -- -- -- 0 -- -- 37
2019-04-10 19:00:00 20.5 -- -- -- -- 0 -- -- 35
2019-04-10 18:00:00 20.4 -- -- -- -- 0 -- -- 43
2019-04-10 17:00:00 20.8 -- -- -- -- 0 -- -- 45
2019-04-10 16:00:00 21.5 -- -- -- -- 0 -- -- 42
2019-04-10 15:00:00 21.7 -- -- -- -- 0 -- -- 36
2019-04-10 14:00:00 21.9 -- -- -- -- 0 -- -- 37
2019-04-10 13:00:00 20.9 -- -- -- -- 0 -- -- 39
2019-04-10 12:00:00 20.7 -- -- -- -- 0 -- -- 41
2019-04-10 11:00:00 19.9 -- -- -- -- 0 -- -- 43
2019-04-10 10:00:00 18 -- -- -- -- 0 -- -- 44
2019-04-10 09:00:00 16.8 -- -- -- -- 0 -- -- 48
2019-04-10 08:00:00 12.5 -- -- -- -- 0 -- -- 58
2019-04-10 07:00:00 12.7 -- -- -- -- 0 -- -- 56
2019-04-10 06:00:00 13 -- -- -- -- 0 -- -- 56
2019-04-10 05:00:00 12.2 -- -- -- -- 0 -- -- 67
2019-04-10 04:00:00 12.5 -- -- -- -- 0 -- -- 67
2019-04-10 03:00:00 12.7 -- -- -- -- 0 -- -- 65
2019-04-10 02:00:00 12.5 -- -- -- -- 0 -- -- 66
2019-04-10 01:00:00 14 -- -- -- -- 0 -- -- 61
2019-04-10 00:00:00 15 -- -- -- -- 0 -- -- 55
2019-04-09 23:00:00 14.7 -- -- -- -- 0 -- -- 66
2019-04-09 22:00:00 14.9 -- -- -- -- 0 -- -- 72
2019-04-09 21:00:00 15 -- -- -- -- 0 -- -- 77
2019-04-09 20:00:00 16.1 -- -- -- -- 0 -- -- 72
2019-04-09 19:00:00 16.7 -- -- -- -- 0 -- -- 69
2019-04-09 18:00:00 17.9 -- -- -- -- 0 -- -- 62
2019-04-09 17:00:00 18 -- -- -- -- 0 -- -- 62
2019-04-09 16:00:00 18.5 -- -- -- -- 0 -- -- 59
2019-04-09 15:00:00 18.7 -- -- -- -- 0 -- -- 52
2019-04-09 14:00:00 20.1 -- -- -- -- 0 -- -- 48
2019-04-09 13:00:00 20.2 -- -- -- -- 0 -- -- 45
2019-04-09 12:00:00 19.6 -- -- -- -- 0 -- -- 42
2019-04-09 11:00:00 17.9 -- -- -- -- 0 -- -- 48
2019-04-09 10:00:00 17.3 -- -- -- -- 0 -- -- 56
2019-04-09 09:00:00 15.7 -- -- -- -- 0 -- -- 59
2019-04-09 08:00:00 11.2 -- -- -- -- 0 -- -- 68
2019-04-09 07:00:00 11.2 -- -- -- -- 0 -- -- 74
2019-04-09 06:00:00 12.1 -- -- -- -- 0 -- -- 74
2019-04-09 05:00:00 12.7 -- -- -- -- 0 -- -- 81
2019-04-09 04:00:00 13.6 -- -- -- -- 0 -- -- 89
2019-04-09 03:00:00 14.1 -- -- -- -- 0 -- -- 86